createdAt,value
2022-08-29T00:02:16.742Z,952.05
2022-08-29T00:04:43.131Z,952.08
2022-08-29T00:07:09.444Z,952.08
2022-08-29T00:09:35.813Z,952.09
2022-08-29T00:12:02.183Z,952.09
2022-08-29T00:14:28.581Z,952.09
2022-08-29T00:16:54.977Z,952.01
2022-08-29T00:19:21.326Z,952.07
2022-08-29T00:21:47.687Z,952.01
2022-08-29T00:24:14.132Z,952.00
2022-08-29T00:26:40.566Z,952.07
2022-08-29T00:29:06.934Z,952.10
2022-08-29T00:31:33.334Z,952.04
2022-08-29T00:33:59.763Z,952.02
2022-08-29T00:36:26.148Z,951.97
2022-08-29T00:38:52.631Z,952.01
2022-08-29T00:41:18.996Z,951.98
2022-08-29T00:43:45.393Z,952.02
2022-08-29T00:46:11.813Z,952.00
2022-08-29T00:48:38.184Z,951.99
2022-08-29T00:51:04.551Z,952.04
2022-08-29T00:53:30.919Z,951.99
2022-08-29T00:55:57.310Z,952.00
2022-08-29T00:58:23.683Z,952.02
2022-08-29T01:00:50.089Z,951.94
2022-08-29T01:03:16.420Z,952.01
2022-08-29T01:05:42.806Z,951.95
2022-08-29T01:08:09.210Z,951.95
2022-08-29T01:10:35.625Z,951.94
2022-08-29T01:13:01.991Z,951.93
2022-08-29T01:15:28.357Z,951.93
2022-08-29T01:17:54.756Z,952.02
2022-08-29T01:20:21.127Z,951.94
2022-08-29T01:22:47.504Z,951.96
2022-08-29T01:25:13.877Z,952.00
2022-08-29T01:27:40.369Z,952.05
2022-08-29T01:30:06.734Z,951.97
2022-08-29T01:32:33.150Z,951.97
2022-08-29T01:34:59.514Z,951.98
2022-08-29T01:37:25.881Z,951.96
2022-08-29T01:39:52.251Z,951.95
2022-08-29T01:42:18.622Z,951.94
2022-08-29T01:44:45.023Z,951.95
2022-08-29T01:47:11.422Z,951.98
2022-08-29T01:49:40.486Z,952.01
2022-08-29T01:52:04.200Z,952.04
2022-08-29T01:54:30.593Z,952.04
2022-08-29T01:56:56.961Z,951.96
2022-08-29T01:59:23.357Z,952.02
2022-08-29T02:01:49.777Z,952.01
2022-08-29T02:04:16.106Z,952.13
2022-08-29T02:06:42.580Z,952.19
2022-08-29T02:09:11.251Z,952.21
2022-08-29T02:11:35.446Z,952.24
2022-08-29T02:14:01.878Z,952.19
2022-08-29T02:16:28.444Z,952.24
2022-08-29T02:18:54.672Z,952.18
2022-08-29T02:21:21.051Z,952.15
2022-08-29T02:23:47.438Z,952.18
2022-08-29T02:26:13.800Z,952.20
2022-08-29T02:28:40.166Z,952.20
2022-08-29T02:31:06.577Z,952.18
2022-08-29T02:33:32.936Z,952.16
2022-08-29T02:35:59.362Z,952.17
2022-08-29T02:38:25.724Z,952.18
2022-08-29T02:40:52.086Z,952.24
2022-08-29T02:43:18.457Z,952.21
2022-08-29T02:45:44.894Z,952.25
2022-08-29T02:48:11.315Z,952.18
2022-08-29T02:50:37.762Z,952.22
2022-08-29T02:53:04.131Z,952.28
2022-08-29T02:55:30.631Z,952.31
2022-08-29T02:57:57.064Z,952.34
2022-08-29T03:00:23.496Z,952.35
2022-08-29T03:02:49.862Z,952.39
2022-08-29T03:05:16.257Z,952.39
2022-08-29T03:07:42.689Z,952.42
2022-08-29T03:10:09.061Z,952.42
2022-08-29T03:12:35.442Z,952.45
2022-08-29T03:15:01.880Z,952.46
2022-08-29T03:17:28.251Z,952.51
2022-08-29T03:19:54.649Z,952.55
2022-08-29T03:22:21.032Z,952.51
2022-08-29T03:24:47.517Z,952.56
2022-08-29T03:27:13.916Z,952.55
2022-08-29T03:29:40.382Z,952.54
2022-08-29T03:32:06.751Z,952.54
2022-08-29T03:34:33.139Z,952.55
2022-08-29T03:36:59.585Z,952.54
2022-08-29T03:39:25.965Z,952.56
2022-08-29T03:41:52.352Z,952.56
2022-08-29T03:44:18.742Z,952.55
2022-08-29T03:46:45.153Z,952.56
2022-08-29T03:49:11.544Z,952.64
2022-08-29T03:51:37.969Z,952.61
2022-08-29T03:54:04.354Z,952.59
2022-08-29T03:56:30.722Z,952.68
2022-08-29T03:58:57.169Z,952.63
2022-08-29T04:01:23.572Z,952.65
2022-08-29T04:03:49.916Z,952.60
2022-08-29T04:06:16.360Z,952.65
2022-08-29T04:08:42.744Z,952.69
2022-08-29T04:11:09.235Z,952.67
2022-08-29T04:13:35.595Z,952.67
2022-08-29T04:16:02.043Z,952.69
2022-08-29T04:18:28.429Z,952.72
2022-08-29T04:20:54.861Z,952.73
2022-08-29T04:23:21.242Z,952.78
2022-08-29T04:25:47.721Z,952.78
2022-08-29T04:28:14.248Z,952.78
2022-08-29T04:30:40.494Z,952.81
2022-08-29T04:33:06.860Z,952.83
2022-08-29T04:35:33.224Z,952.90
2022-08-29T04:37:59.693Z,952.90
2022-08-29T04:40:26.146Z,952.89
2022-08-29T04:42:52.456Z,952.87
2022-08-29T04:45:18.842Z,952.90
2022-08-29T04:47:45.319Z,952.92
2022-08-29T04:50:11.766Z,952.93
2022-08-29T04:52:38.131Z,952.98
2022-08-29T04:55:04.553Z,953.06
2022-08-29T04:57:30.911Z,953.12
2022-08-29T04:59:57.287Z,953.14
2022-08-29T05:02:23.729Z,953.14
2022-08-29T05:04:50.081Z,953.16
2022-08-29T05:07:16.476Z,953.15
2022-08-29T05:09:42.944Z,953.15
2022-08-29T05:12:10.354Z,953.17
2022-08-29T05:14:35.878Z,953.20
2022-08-29T05:17:02.289Z,953.21
2022-08-29T05:19:34.561Z,953.21
2022-08-29T05:21:57.351Z,953.26
2022-08-29T05:24:23.746Z,953.25
2022-08-29T05:26:50.187Z,953.25
2022-08-29T05:29:16.571Z,953.28
2022-08-29T05:31:45.398Z,953.28
2022-08-29T05:34:27.882Z,953.28
2022-08-29T05:36:35.743Z,953.30
2022-08-29T05:39:02.127Z,953.39
2022-08-29T05:41:28.522Z,953.49
2022-08-29T05:43:54.887Z,953.48
2022-08-29T05:46:21.300Z,953.44
2022-08-29T05:48:47.677Z,953.39
2022-08-29T05:51:14.057Z,953.43
2022-08-29T05:53:40.548Z,953.49
2022-08-29T05:56:06.947Z,953.44
2022-08-29T05:58:33.412Z,953.48
2022-08-29T06:00:59.774Z,953.50
2022-08-29T06:03:26.275Z,953.43
2022-08-29T06:05:52.555Z,953.49
2022-08-29T06:08:18.945Z,953.47
2022-08-29T06:10:45.480Z,953.49
2022-08-29T06:13:11.849Z,953.48
2022-08-29T06:15:38.283Z,953.54
2022-08-29T06:18:04.675Z,953.48
2022-08-29T06:20:31.107Z,953.49
2022-08-29T06:22:57.472Z,953.52
2022-08-29T06:25:39.242Z,953.53
2022-08-29T06:27:50.219Z,953.53
2022-08-29T06:30:16.605Z,953.50
2022-08-29T06:32:42.985Z,953.46
2022-08-29T06:35:09.369Z,953.55
2022-08-29T06:37:35.733Z,953.53
2022-08-29T06:40:02.135Z,953.61
2022-08-29T06:42:28.814Z,953.52
2022-08-29T06:44:55.029Z,953.55
2022-08-29T06:47:21.394Z,953.48
2022-08-29T06:49:47.820Z,953.52
2022-08-29T06:52:14.222Z,953.54
2022-08-29T06:54:40.612Z,953.59
2022-08-29T06:57:07.090Z,953.65
2022-08-29T06:59:33.455Z,953.60
2022-08-29T07:01:59.914Z,953.62
2022-08-29T07:04:26.647Z,953.65
2022-08-29T07:06:52.670Z,953.61
2022-08-29T07:09:19.067Z,953.64
2022-08-29T07:11:45.485Z,953.70
2022-08-29T07:14:11.919Z,953.65
2022-08-29T07:16:38.322Z,953.69
2022-08-29T07:19:04.688Z,953.71
2022-08-29T07:21:31.109Z,953.70
2022-08-29T07:23:57.481Z,953.67
2022-08-29T07:26:23.876Z,953.69
2022-08-29T07:28:50.249Z,953.65
2022-08-29T07:31:16.757Z,953.73
2022-08-29T07:33:43.074Z,953.76
2022-08-29T07:36:09.438Z,953.79
2022-08-29T07:38:35.806Z,953.82
2022-08-29T07:41:02.271Z,953.77
2022-08-29T07:43:28.818Z,953.79
2022-08-29T07:45:55.086Z,953.79
2022-08-29T07:48:23.125Z,953.73
2022-08-29T07:50:47.801Z,953.73
2022-08-29T07:53:14.405Z,953.73
2022-08-29T07:55:40.658Z,953.70
2022-08-29T07:58:07.039Z,953.69
2022-08-29T08:00:33.443Z,953.68
2022-08-29T08:02:59.900Z,953.67
2022-08-29T08:05:26.301Z,953.62
2022-08-29T08:07:55.622Z,953.65
2022-08-29T08:10:19.051Z,953.60
2022-08-29T08:12:45.488Z,953.66
2022-08-29T08:15:11.883Z,953.56
2022-08-29T08:17:43.387Z,953.57
2022-08-29T08:20:04.745Z,953.63
2022-08-29T08:22:31.141Z,953.57
2022-08-29T08:24:57.562Z,953.58
2022-08-29T08:27:23.986Z,953.49
2022-08-29T08:29:50.420Z,953.45
2022-08-29T08:32:16.792Z,953.47
2022-08-29T08:34:43.193Z,953.56
2022-08-29T08:37:09.615Z,953.51
2022-08-29T08:39:35.993Z,953.54
2022-08-29T08:42:02.486Z,953.55
2022-08-29T08:44:28.877Z,953.54
2022-08-29T08:46:55.250Z,953.48
2022-08-29T08:49:21.658Z,953.48
2022-08-29T08:51:48.030Z,953.41
2022-08-29T08:54:14.446Z,953.36
2022-08-29T08:56:40.842Z,953.35
2022-08-29T08:59:07.309Z,953.32
2022-08-29T09:01:33.739Z,953.31
2022-08-29T09:04:00.052Z,953.34
2022-08-29T09:06:26.421Z,953.32
2022-08-29T09:08:52.836Z,953.34
2022-08-29T09:11:19.266Z,953.24
2022-08-29T09:13:45.703Z,953.27
2022-08-29T09:16:12.118Z,953.28
2022-08-29T09:18:38.461Z,953.25
2022-08-29T09:21:10.031Z,953.20
2022-08-29T09:23:31.343Z,953.21
2022-08-29T09:25:57.735Z,953.22
2022-08-29T09:28:24.097Z,953.19
2022-08-29T09:30:50.501Z,953.13
2022-08-29T09:33:17.070Z,953.12
2022-08-29T09:35:43.238Z,953.11
2022-08-29T09:38:09.617Z,953.08
2022-08-29T09:40:36.013Z,953.05
2022-08-29T09:43:02.358Z,953.05
2022-08-29T09:45:28.830Z,953.04
2022-08-29T09:47:55.126Z,953.03
2022-08-29T09:50:21.634Z,953.01
2022-08-29T09:52:48.002Z,952.98
2022-08-29T09:55:14.363Z,952.95
2022-08-29T09:57:40.773Z,952.90
2022-08-29T10:00:07.144Z,952.88
2022-08-29T10:02:33.590Z,952.86
2022-08-29T10:04:59.977Z,952.85
2022-08-29T10:07:26.360Z,952.95
2022-08-29T10:09:52.987Z,952.83
2022-08-29T10:12:19.482Z,952.83
2022-08-29T10:14:50.505Z,952.83
2022-08-29T10:17:12.319Z,952.76
2022-08-29T10:19:38.704Z,952.72
2022-08-29T10:22:05.065Z,952.67
2022-08-29T10:24:31.432Z,952.60
2022-08-29T10:26:58.181Z,952.53
2022-08-29T10:29:26.572Z,952.49
2022-08-29T10:31:51.080Z,952.54
2022-08-29T10:34:17.478Z,952.54
2022-08-29T10:36:43.916Z,952.54
2022-08-29T10:39:10.296Z,952.53
2022-08-29T10:41:36.681Z,952.52
2022-08-29T10:44:03.113Z,952.46
2022-08-29T10:46:29.427Z,952.42
2022-08-29T10:48:55.825Z,952.40
2022-08-29T10:51:22.223Z,952.48
2022-08-29T10:53:48.599Z,952.47
2022-08-29T10:56:15.014Z,952.50
2022-08-29T10:58:41.395Z,952.53
2022-08-29T11:01:09.437Z,952.39
2022-08-29T11:03:34.281Z,952.40
2022-08-29T11:06:00.653Z,952.33
2022-08-29T11:08:27.037Z,952.44
2022-08-29T11:10:53.441Z,952.32
2022-08-29T11:13:19.797Z,952.31
2022-08-29T11:15:48.356Z,952.30
2022-08-29T11:18:12.665Z,952.16
2022-08-29T11:20:39.034Z,952.13
2022-08-29T11:23:05.400Z,952.07
2022-08-29T11:25:31.858Z,952.03
2022-08-29T11:27:58.273Z,952.08
2022-08-29T11:30:24.656Z,951.97
2022-08-29T11:32:51.019Z,952.00
2022-08-29T11:35:18.002Z,951.98
2022-08-29T11:37:44.373Z,952.00
2022-08-29T11:40:10.938Z,951.93
2022-08-29T11:42:52.689Z,951.87
2022-08-29T11:45:03.635Z,951.87
2022-08-29T11:47:30.159Z,951.91
2022-08-29T11:49:56.528Z,951.93
2022-08-29T11:52:22.914Z,951.88
2022-08-29T11:54:49.281Z,951.83
2022-08-29T11:57:15.695Z,951.84
2022-08-29T11:59:42.089Z,951.85
2022-08-29T12:02:08.561Z,951.81
2022-08-29T12:04:35.016Z,951.70
2022-08-29T12:07:01.553Z,951.72
2022-08-29T12:09:27.783Z,951.73
2022-08-29T12:11:54.167Z,951.78
2022-08-29T12:14:20.567Z,951.84
2022-08-29T12:16:47.077Z,951.89
2022-08-29T12:19:13.387Z,951.91
2022-08-29T12:21:39.761Z,951.87
2022-08-29T12:24:06.120Z,951.89
2022-08-29T12:26:32.483Z,951.92
2022-08-29T12:28:58.911Z,951.84
2022-08-29T12:31:25.327Z,951.82
2022-08-29T12:33:51.686Z,951.85
2022-08-29T12:36:18.079Z,951.77
2022-08-29T12:38:44.466Z,951.83
2022-08-29T12:41:10.832Z,951.81
2022-08-29T12:43:37.301Z,951.74
2022-08-29T12:46:03.740Z,951.76
2022-08-29T12:48:30.173Z,951.78
2022-08-29T12:50:56.608Z,951.83
2022-08-29T12:53:22.986Z,951.86
2022-08-29T12:55:49.347Z,951.95
2022-08-29T12:58:15.882Z,951.95
2022-08-29T13:00:42.099Z,951.94
2022-08-29T13:03:09.500Z,951.97
2022-08-29T13:05:34.841Z,951.91
2022-08-29T13:08:01.236Z,951.95
2022-08-29T13:10:27.614Z,952.00
2022-08-29T13:12:53.994Z,951.94
2022-08-29T13:15:20.414Z,952.10
2022-08-29T13:17:46.855Z,952.30
2022-08-29T13:20:13.220Z,952.12
2022-08-29T13:22:39.827Z,952.23
2022-08-29T13:25:06.192Z,952.18
2022-08-29T13:27:32.582Z,952.16
2022-08-29T13:29:59.071Z,952.11
2022-08-29T13:32:25.402Z,952.02
2022-08-29T13:34:51.793Z,952.10
2022-08-29T13:37:20.067Z,952.12
2022-08-29T13:39:44.647Z,952.15
2022-08-29T13:42:11.019Z,952.23
2022-08-29T13:44:37.379Z,952.21
2022-08-29T13:47:03.847Z,952.11
2022-08-29T13:49:30.273Z,952.07
2022-08-29T13:51:56.671Z,952.03
2022-08-29T13:54:23.047Z,952.07
2022-08-29T13:56:49.409Z,952.10
2022-08-29T13:59:15.925Z,952.20
2022-08-29T14:04:34.463Z,952.33
2022-08-29T14:06:35.384Z,952.46
2022-08-29T14:09:01.727Z,952.57
2022-08-29T14:11:28.169Z,952.66
2022-08-29T14:13:54.617Z,952.75
2022-08-29T14:16:21.043Z,952.75
2022-08-29T14:18:47.343Z,952.73
2022-08-29T14:21:13.757Z,952.76
2022-08-29T14:23:40.121Z,952.74
2022-08-29T14:26:06.570Z,952.69
2022-08-29T14:28:35.747Z,952.82
2022-08-29T14:30:59.429Z,952.85
2022-08-29T14:33:25.821Z,952.88
2022-08-29T14:35:52.307Z,952.96
2022-08-29T14:38:18.949Z,952.93
2022-08-29T14:40:45.141Z,952.92
2022-08-29T14:43:11.602Z,952.86
2022-08-29T14:45:37.981Z,952.87
2022-08-29T14:48:04.367Z,952.92
2022-08-29T14:50:30.746Z,952.93
2022-08-29T14:52:57.117Z,952.84
2022-08-29T14:55:23.508Z,952.86
2022-08-29T14:57:49.869Z,952.87
2022-08-29T15:00:16.273Z,952.82
2022-08-29T15:02:42.691Z,952.82
2022-08-29T15:05:09.052Z,952.82
2022-08-29T15:07:35.517Z,952.84
2022-08-29T15:10:01.924Z,952.84
2022-08-29T15:12:28.390Z,952.77
2022-08-29T15:14:54.774Z,952.76
2022-08-29T15:17:21.144Z,952.77
2022-08-29T15:22:13.909Z,952.74
2022-08-29T15:24:40.280Z,952.81
2022-08-29T15:27:06.652Z,952.74
2022-08-29T15:29:33.039Z,952.76
2022-08-29T15:31:59.441Z,952.72
2022-08-29T15:34:25.806Z,952.71
2022-08-29T15:36:52.314Z,952.74
2022-08-29T15:39:18.673Z,952.72
2022-08-29T15:41:45.133Z,952.75
2022-08-29T15:44:11.535Z,952.75
2022-08-29T15:46:38.225Z,952.77
2022-08-29T15:49:04.301Z,952.71
2022-08-29T15:51:30.677Z,952.75
2022-08-29T15:53:57.073Z,952.75
2022-08-29T15:56:23.483Z,952.66
2022-08-29T15:58:49.867Z,952.61
2022-08-29T16:01:16.320Z,952.56
2022-08-29T16:03:42.656Z,952.54
2022-08-29T16:06:09.090Z,952.55
2022-08-29T16:08:35.439Z,952.53
2022-08-29T16:11:01.832Z,952.58
2022-08-29T16:13:28.254Z,952.56
2022-08-29T16:15:54.681Z,952.54
2022-08-29T16:18:20.981Z,952.57
2022-08-29T16:20:47.418Z,952.60
2022-08-29T16:23:13.871Z,952.66
2022-08-29T16:25:40.239Z,952.62
2022-08-29T16:28:06.643Z,952.61
2022-08-29T16:30:33.054Z,952.58
2022-08-29T16:32:59.396Z,952.54
2022-08-29T16:35:25.883Z,952.54
2022-08-29T16:38:02.270Z,952.52
2022-08-29T16:40:18.808Z,952.55
2022-08-29T16:42:55.441Z,952.46
2022-08-29T16:45:11.622Z,952.49
2022-08-29T16:47:37.991Z,952.50
2022-08-29T16:50:04.481Z,952.46
2022-08-29T16:52:30.891Z,952.43
2022-08-29T16:54:57.257Z,952.42
2022-08-29T16:57:23.678Z,952.34
2022-08-29T16:59:50.116Z,952.28
2022-08-29T17:02:16.561Z,952.25
2022-08-29T17:04:42.866Z,952.26
2022-08-29T17:07:09.308Z,952.18
2022-08-29T17:09:35.713Z,952.14
2022-08-29T17:12:03.461Z,952.23
2022-08-29T17:14:28.441Z,952.21
2022-08-29T17:16:54.866Z,952.27
2022-08-29T17:19:21.193Z,952.26
2022-08-29T17:21:47.574Z,952.19
2022-08-29T17:24:13.950Z,952.33
2022-08-29T17:26:40.967Z,952.40
2022-08-29T17:29:06.694Z,952.47
2022-08-29T17:31:36.842Z,952.44
2022-08-29T17:33:59.459Z,952.49
2022-08-29T17:36:25.890Z,952.41
2022-08-29T17:38:52.330Z,952.51
2022-08-29T17:41:18.718Z,952.51
2022-08-29T17:43:45.186Z,952.52
2022-08-29T17:46:11.777Z,952.51
2022-08-29T17:48:38.064Z,952.58
2022-08-29T17:51:04.449Z,952.59
2022-08-29T17:53:30.829Z,952.54
2022-08-29T17:55:57.245Z,952.44
2022-08-29T17:58:23.631Z,952.44
2022-08-29T18:00:50.063Z,952.52
2022-08-29T18:03:16.545Z,952.52
2022-08-29T18:05:42.940Z,952.50
2022-08-29T18:08:09.410Z,952.61
2022-08-29T18:10:35.771Z,952.66
2022-08-29T18:13:02.148Z,952.66
2022-08-29T18:15:28.621Z,952.60
2022-08-29T18:17:54.986Z,952.60
2022-08-29T18:20:21.381Z,952.57
2022-08-29T18:22:47.747Z,952.58
2022-08-29T18:25:14.196Z,952.62
2022-08-29T18:27:43.609Z,952.67
2022-08-29T18:30:06.954Z,952.66
2022-08-29T18:32:37.334Z,952.71
2022-08-29T18:35:00.899Z,952.69
2022-08-29T18:37:26.313Z,952.73
2022-08-29T18:39:52.717Z,952.73
2022-08-29T18:42:38.805Z,952.80
2022-08-29T18:44:45.553Z,952.79
2022-08-29T18:47:11.922Z,952.80
2022-08-29T18:49:38.371Z,952.85
2022-08-29T18:52:04.758Z,952.83
2022-08-29T18:54:31.230Z,952.91
2022-08-29T18:56:57.605Z,952.88
2022-08-29T18:59:23.999Z,952.93
2022-08-29T19:01:50.441Z,952.92
2022-08-29T19:04:16.768Z,952.94
2022-08-29T19:06:43.152Z,952.97
2022-08-29T19:09:09.631Z,952.93
2022-08-29T19:11:36.071Z,952.91
2022-08-29T19:14:02.446Z,952.88
2022-08-29T19:16:28.926Z,952.88
2022-08-29T19:18:55.362Z,952.90
2022-08-29T19:21:21.799Z,952.89
2022-08-29T19:23:52.501Z,952.97
2022-08-29T19:26:14.666Z,952.89
2022-08-29T19:28:41.092Z,952.93
2022-08-29T19:31:07.451Z,952.97
2022-08-29T19:33:33.856Z,952.98
2022-08-29T19:36:00.215Z,953.05
2022-08-29T19:38:26.631Z,953.03
2022-08-29T19:40:53.096Z,953.10
2022-08-29T19:43:19.711Z,953.18
2022-08-29T19:45:45.847Z,953.14
2022-08-29T19:48:15.427Z,953.09
2022-08-29T19:50:38.688Z,953.04
2022-08-29T19:53:05.049Z,953.15
2022-08-29T19:55:31.457Z,953.16
2022-08-29T19:57:57.885Z,953.19
2022-08-29T20:00:24.280Z,953.18
2022-08-29T20:02:50.664Z,953.10
2022-08-29T20:05:17.054Z,953.08
2022-08-29T20:07:43.447Z,953.08
2022-08-29T20:10:09.818Z,953.05
2022-08-29T20:12:36.201Z,953.02
2022-08-29T20:15:02.597Z,953.06
2022-08-29T20:17:30.357Z,953.08
2022-08-29T20:19:55.377Z,953.09
2022-08-29T20:22:21.758Z,953.06
2022-08-29T20:24:48.150Z,953.09
2022-08-29T20:27:14.531Z,953.16
2022-08-29T20:29:40.902Z,953.18
2022-08-29T20:32:07.270Z,953.18
2022-08-29T20:34:33.673Z,953.26
2022-08-29T20:37:00.098Z,953.30
2022-08-29T20:39:26.464Z,953.33
2022-08-29T20:41:52.827Z,953.34
2022-08-29T20:44:19.233Z,953.32
2022-08-29T20:46:45.645Z,953.35
2022-08-29T20:49:11.987Z,953.35
2022-08-29T20:51:38.375Z,953.43
2022-08-29T20:54:04.764Z,953.45
2022-08-29T20:56:31.156Z,953.43
2022-08-29T20:58:57.571Z,953.45
2022-08-29T21:01:24.042Z,953.46
2022-08-29T21:03:50.457Z,953.45
2022-08-29T21:06:16.841Z,953.46
2022-08-29T21:08:43.314Z,953.41
2022-08-29T21:11:09.751Z,953.46
2022-08-29T21:13:36.123Z,953.51
2022-08-29T21:16:02.556Z,953.45
2022-08-29T21:18:28.883Z,953.45
2022-08-29T21:20:55.279Z,953.46
2022-08-29T21:23:21.651Z,953.49
2022-08-29T21:25:48.038Z,953.49
2022-08-29T21:28:14.442Z,953.48
2022-08-29T21:30:44.903Z,953.50
2022-08-29T21:33:07.191Z,953.49
2022-08-29T21:35:33.591Z,953.46
2022-08-29T21:37:59.962Z,953.41
2022-08-29T21:40:26.391Z,953.46
2022-08-29T21:42:52.725Z,953.36
2022-08-29T21:45:19.097Z,953.37
2022-08-29T21:47:45.470Z,953.30
2022-08-29T21:50:11.862Z,953.27
2022-08-29T21:52:38.252Z,953.31
2022-08-29T21:55:04.725Z,953.31
2022-08-29T21:57:31.157Z,953.30
2022-08-29T21:59:57.694Z,953.30
2022-08-29T22:02:24.181Z,953.27
2022-08-29T22:04:50.427Z,953.31
2022-08-29T22:07:16.844Z,953.24
2022-08-29T22:09:43.200Z,953.18
2022-08-29T22:12:09.655Z,953.17
2022-08-29T22:14:36.085Z,953.13
2022-08-29T22:17:02.456Z,953.16
2022-08-29T22:19:28.811Z,953.18
2022-08-29T22:21:55.185Z,953.26
2022-08-29T22:24:21.554Z,953.33
2022-08-29T22:26:47.936Z,953.35
2022-08-29T22:29:14.358Z,953.38
2022-08-29T22:31:42.589Z,953.43
2022-08-29T22:34:07.096Z,953.52
2022-08-29T22:36:33.467Z,953.48
2022-08-29T22:38:59.902Z,953.47
2022-08-29T22:41:26.302Z,953.49
2022-08-29T22:44:16.561Z,953.44
2022-08-29T22:46:19.123Z,953.47
2022-08-29T22:48:45.533Z,953.45
2022-08-29T22:51:11.967Z,953.52
2022-08-29T22:53:38.323Z,953.52
2022-08-29T22:56:04.694Z,953.49
2022-08-29T22:58:31.068Z,953.51
2022-08-29T23:00:57.460Z,953.54
2022-08-29T23:03:23.879Z,953.54
2022-08-29T23:05:50.251Z,953.57
2022-08-29T23:08:16.634Z,953.55
2022-08-29T23:10:43.126Z,953.62
2022-08-29T23:13:09.517Z,953.61
2022-08-29T23:15:35.887Z,953.64
2022-08-29T23:18:02.319Z,953.63
2022-08-29T23:20:29.123Z,953.64
2022-08-29T23:22:55.121Z,953.60
2022-08-29T23:25:21.490Z,953.62
2022-08-29T23:27:47.888Z,953.66
2022-08-29T23:30:14.256Z,953.57
2022-08-29T23:32:40.655Z,953.63
2022-08-29T23:35:07.043Z,953.65
2022-08-29T23:37:33.479Z,953.68
2022-08-29T23:39:59.921Z,953.73
2022-08-29T23:42:26.239Z,953.71
2022-08-29T23:44:52.618Z,953.70
2022-08-29T23:47:18.972Z,953.69
2022-08-29T23:49:45.346Z,953.69
2022-08-29T23:52:11.714Z,953.69
2022-08-29T23:54:38.132Z,953.75
2022-08-29T23:57:04.484Z,953.75
2022-08-29T23:59:30.854Z,953.73
